Time;durP1;ratioP1;P1;durP2;ratioP2;P2;SDS_P1;SDS_P2;PMS_P1;PMS_P2;Temp;Humidity;BMP_temperature;BMP_pressure;BME280_temperature;BME280_humidity;BME280_pressure;Samples;Min_cycle;Max_cycle;Signal;HPM_P1;HPM_P2
2023/06/14 00:00:04;;;;;;;;;;;;;;;16.16;73.80;100975.29;107440;1254;113383;-67
2023/06/14 00:02:32;;;;;;;;;;;;;;;16.17;73.83;100976.58;107484;1258;108268;-66
2023/06/14 00:05:01;;;;;;;;;;;;;;;16.19;73.77;100976.17;107467;1254;108025;-66
2023/06/14 00:07:36;;;;;;;;;;;;;;;16.20;73.80;100976.20;107460;1254;99188;-65
2023/06/14 00:10:04;;;;;;;;;;;;;;;16.21;73.72;100973.52;107474;1259;99349;-67
2023/06/14 00:12:32;;;;;;;;;;;;;;;16.26;73.53;100975.60;107495;1255;113358;-65
2023/06/14 00:15:01;;;;;;;;;;;;;;;16.25;73.89;100971.48;107490;1254;108679;-67
2023/06/14 00:17:30;;;;;;;;;;;;;;;16.19;74.19;100969.11;107480;1260;107704;-66
2023/06/14 00:19:59;;;;;;;;;;;;;;;16.18;74.00;100971.52;107460;1259;99197;-66
2023/06/14 00:22:30;;;;;;;;;;;;;;;16.17;74.31;100968.95;107438;1255;99195;-66
2023/06/14 00:24:59;;;;;;;;;;;;;;;16.17;74.35;100969.02;107479;1254;113208;-66
2023/06/14 00:27:38;;;;;;;;;;;;;;;16.11;74.66;100966.66;107431;1257;110216;-66
2023/06/14 00:30:07;;;;;;;;;;;;;;;16.10;74.23;100964.23;107395;1254;108773;-66
2023/06/14 00:32:35;;;;;;;;;;;;;;;16.13;74.54;100967.35;107486;1254;99329;-65
2023/06/14 00:35:04;;;;;;;;;;;;;;;16.15;74.40;100962.33;107448;1259;99319;-65
2023/06/14 00:37:32;;;;;;;;;;;;;;;16.16;74.29;100961.08;107465;1258;112861;-66
2023/06/14 00:40:04;;;;;;;;;;;;;;;16.18;74.19;100959.78;107436;1258;109878;-66
2023/06/14 00:42:32;;;;;;;;;;;;;;;16.19;74.01;100958.73;107381;1257;107888;-65
2023/06/14 00:45:01;;;;;;;;;;;;;;;16.18;74.13;100960.88;107432;1254;99167;-71
2023/06/14 00:47:30;;;;;;;;;;;;;;;16.15;74.03;100958.50;107436;1259;99178;-72
2023/06/14 00:49:59;;;;;;;;;;;;;;;16.17;74.00;100955.23;107326;1260;113551;-67
2023/06/14 00:52:29;;;;;;;;;;;;;;;16.18;73.94;100951.81;107471;1254;109424;-66
2023/06/14 00:54:58;;;;;;;;;;;;;;;16.21;73.82;100950.06;107477;1258;107696;-67
2023/06/14 00:57:27;;;;;;;;;;;;;;;16.25;73.88;100947.38;107259;1254;99095;-65
2023/06/14 00:59:56;;;;;;;;;;;;;;;16.30;73.59;100945.44;107508;1259;99167;-67
2023/06/14 01:02:24;;;;;;;;;;;;;;;16.32;73.56;100944.19;107478;1254;113203;-65
2023/06/14 01:04:53;;;;;;;;;;;;;;;16.31;73.42;100944.70;107462;1253;109607;-67
2023/06/14 01:07:39;;;;;;;;;;;;;;;16.28;73.19;100944.55;107471;1254;108383;-67
2023/06/14 01:10:08;;;;;;;;;;;;;;;16.26;73.15;100946.05;107253;1254;99301;-66
2023/06/14 01:12:55;;;;;;;;;;;;;;;16.24;73.14;100940.26;107424;1259;99178;-66
2023/06/14 01:15:23;;;;;;;;;;;;;;;16.21;73.17;100935.56;107439;1257;113680;-66
2023/06/14 01:17:53;;;;;;;;;;;;;;;16.15;73.52;100938.22;107465;1259;110154;-67
2023/06/14 01:20:22;;;;;;;;;;;;;;;16.09;74.12;100936.20;107446;1254;107901;-67
2023/06/14 01:22:51;;;;;;;;;;;;;;;16.02;74.26;100932.44;107450;1254;99256;-66
2023/06/14 01:25:20;;;;;;;;;;;;;;;15.94;74.95;100930.48;107484;1258;99390;-66
2023/06/14 01:27:54;;;;;;;;;;;;;;;15.85;75.61;100931.56;107255;1259;113527;-66
2023/06/14 01:30:23;;;;;;;;;;;;;;;15.76;76.06;100938.06;107465;1254;109331;-67
2023/06/14 01:32:52;;;;;;;;;;;;;;;15.73;75.75;100942.07;107447;1254;108418;-66
2023/06/14 01:35:21;;;;;;;;;;;;;;;15.75;75.73;100943.23;107472;1257;99178;-65
2023/06/14 01:37:50;;;;;;;;;;;;;;;15.75;75.87;100944.19;107435;1256;99150;-66
2023/06/14 01:40:19;;;;;;;;;;;;;;;15.75;76.05;100941.04;107312;1259;112130;-66
2023/06/14 01:42:49;;;;;;;;;;;;;;;15.75;76.20;100941.98;107320;1254;109843;-65
2023/06/14 01:45:18;;;;;;;;;;;;;;;15.74;75.81;100943.92;107432;1254;106976;-66
2023/06/14 01:47:47;;;;;;;;;;;;;;;15.72;76.12;100950.12;107263;1254;99219;-66
2023/06/14 01:50:18;;;;;;;;;;;;;;;15.70;76.13;100947.27;107446;1257;98410;-65
2023/06/14 01:52:46;;;;;;;;;;;;;;;15.66;76.12;100942.92;107404;1254;112824;-67
2023/06/14 01:55:17;;;;;;;;;;;;;;;15.66;76.12;100937.90;107411;1254;109452;-65
2023/06/14 01:57:45;;;;;;;;;;;;;;;15.65;76.13;100938.54;107398;1254;109425;-68
2023/06/14 02:00:15;;;;;;;;;;;;;;;15.64;76.33;100939.64;107250;1254;99182;-67
2023/06/14 02:02:45;;;;;;;;;;;;;;;15.64;76.44;100938.85;107401;1254;98633;-66
2023/06/14 02:05:15;;;;;;;;;;;;;;;15.64;76.16;100937.59;107321;1254;113151;-66
2023/06/14 02:07:43;;;;;;;;;;;;;;;15.62;76.79;100934.90;107271;1254;109118;-66
2023/06/14 02:10:11;;;;;;;;;;;;;;;15.58;76.92;100936.60;107395;1254;108033;-67
2023/06/14 02:12:40;;;;;;;;;;;;;;;15.54;77.16;100935.77;107425;1254;99189;-66
2023/06/14 02:15:16;;;;;;;;;;;;;;;15.52;76.89;100936.33;107418;1255;99045;-66
2023/06/14 02:17:47;;;;;;;;;;;;;;;15.54;76.77;100936.07;107410;1257;113413;-67
2023/06/14 02:20:17;;;;;;;;;;;;;;;15.61;76.87;100939.45;107423;1254;109502;-66
2023/06/14 02:22:46;;;;;;;;;;;;;;;15.69;76.85;100938.52;107448;1257;107341;-67
2023/06/14 02:25:15;;;;;;;;;;;;;;;15.74;76.74;100936.67;107255;1254;99176;-65
2023/06/14 02:27:43;;;;;;;;;;;;;;;15.77;76.55;100938.09;107266;1254;99061;-68
2023/06/14 02:30:12;;;;;;;;;;;;;;;15.82;76.42;100939.07;107258;1257;113657;-68
2023/06/14 02:32:42;;;;;;;;;;;;;;;15.88;76.40;100939.04;107392;1254;110473;-66
2023/06/14 02:35:13;;;;;;;;;;;;;;;15.92;76.14;100939.27;107361;1254;109115;-65
2023/06/14 02:37:42;;;;;;;;;;;;;;;15.93;75.72;100942.80;107389;1257;99250;-67
2023/06/14 02:40:11;;;;;;;;;;;;;;;15.93;75.58;100944.26;107391;1254;99177;-67
2023/06/14 02:42:40;;;;;;;;;;;;;;;15.94;75.72;100946.30;107313;1254;111948;-66
2023/06/14 02:45:09;;;;;;;;;;;;;;;15.96;75.60;100946.73;107231;1259;108976;-64
2023/06/14 02:47:37;;;;;;;;;;;;;;;16.02;75.69;100953.77;107374;1254;107564;-67
2023/06/14 02:50:06;;;;;;;;;;;;;;;16.05;75.45;100953.98;107367;1254;99172;-66
2023/06/14 02:52:34;;;;;;;;;;;;;;;16.07;75.54;100955.54;107292;1254;99262;-66
2023/06/14 02:55:02;;;;;;;;;;;;;;;16.05;75.56;100955.20;107361;1255;112806;-65
2023/06/14 02:57:30;;;;;;;;;;;;;;;16.01;75.42;100955.13;107253;1254;109544;-67
2023/06/14 02:59:59;;;;;;;;;;;;;;;15.99;75.51;100957.20;107287;1254;109811;-67
2023/06/14 03:02:27;;;;;;;;;;;;;;;15.96;75.47;100958.34;107409;1255;99166;-65
2023/06/14 03:04:56;;;;;;;;;;;;;;;15.96;75.67;100959.66;107313;1254;99263;-66
2023/06/14 03:07:25;;;;;;;;;;;;;;;15.93;75.87;100962.10;107310;1254;113536;-66
2023/06/14 03:09:53;;;;;;;;;;;;;;;15.87;76.18;100968.60;107412;1253;109565;-67
2023/06/14 03:12:23;;;;;;;;;;;;;;;15.79;76.70;100965.73;107365;1254;108189;-67
2023/06/14 03:14:53;;;;;;;;;;;;;;;15.73;76.99;100962.84;107341;1254;99196;-66
2023/06/14 03:17:24;;;;;;;;;;;;;;;15.71;76.95;100966.29;107235;1254;99208;-67
2023/06/14 03:19:53;;;;;;;;;;;;;;;15.74;76.91;100967.21;107392;1255;113753;-67
2023/06/14 03:22:21;;;;;;;;;;;;;;;15.78;77.04;100963.52;107241;1254;109832;-67
2023/06/14 03:24:51;;;;;;;;;;;;;;;15.81;77.39;100962.16;107355;1254;107364;-68
2023/06/14 03:27:20;;;;;;;;;;;;;;;15.78;77.47;100964.38;107257;1254;99064;-67
2023/06/14 03:29:49;;;;;;;;;;;;;;;15.79;77.40;100967.77;107300;1254;99060;-68
2023/06/14 03:32:18;;;;;;;;;;;;;;;15.80;77.42;100965.67;107385;1257;112976;-67
2023/06/14 03:34:46;;;;;;;;;;;;;;;15.85;77.19;100965.91;107368;1254;109930;-65
2023/06/14 03:37:18;;;;;;;;;;;;;;;15.92;77.20;100965.81;107303;1254;108074;-66
2023/06/14 03:39:47;;;;;;;;;;;;;;;15.96;76.84;100965.56;107371;1257;99007;-67
2023/06/14 03:42:22;;;;;;;;;;;;;;;16.05;76.74;100971.38;107423;1254;99501;-66
2023/06/14 03:44:50;;;;;;;;;;;;;;;16.12;76.81;100969.34;107373;1254;112998;-67
2023/06/14 03:47:20;;;;;;;;;;;;;;;16.13;76.54;100967.59;107403;1254;110858;-65
2023/06/14 03:49:49;;;;;;;;;;;;;;;16.19;76.56;100972.13;107291;1254;107964;-65
2023/06/14 03:52:18;;;;;;;;;;;;;;;16.26;76.45;100970.73;107378;1254;99163;-66
2023/06/14 03:54:47;;;;;;;;;;;;;;;16.30;76.36;100969.39;107381;1254;99275;-66
2023/06/14 03:57:20;;;;;;;;;;;;;;;16.39;76.36;100968.21;107475;1254;112716;-66
2023/06/14 03:59:49;;;;;;;;;;;;;;;16.52;76.47;100969.10;107333;1259;109488;-67
2023/06/14 04:02:18;;;;;;;;;;;;;;;16.61;76.02;100970.51;107434;1254;108573;-71
2023/06/14 04:04:48;;;;;;;;;;;;;;;16.69;75.84;100971.56;107476;1254;99254;-64
2023/06/14 04:07:19;;;;;;;;;;;;;;;16.77;75.57;100969.81;107443;1253;99326;-67
2023/06/14 04:09:47;;;;;;;;;;;;;;;16.88;75.51;100972.91;107394;1257;113409;-67
2023/06/14 04:12:15;;;;;;;;;;;;;;;16.99;75.14;100969.38;107443;1254;110174;-67
2023/06/14 04:14:43;;;;;;;;;;;;;;;17.08;75.19;100965.80;107434;1254;107569;-65
2023/06/14 04:17:12;;;;;;;;;;;;;;;17.19;75.01;100964.61;107413;1257;99035;-66
2023/06/14 04:19:44;;;;;;;;;;;;;;;17.27;74.85;100968.36;107419;1254;99185;-66
2023/06/14 04:22:13;;;;;;;;;;;;;;;17.35;74.64;100970.50;107440;1254;113168;-67
2023/06/14 04:24:42;;;;;;;;;;;;;;;17.43;74.27;100976.35;107403;1254;109713;-67
2023/06/14 04:27:11;;;;;;;;;;;;;;;17.44;73.81;100974.73;107375;1254;108880;-66
2023/06/14 04:29:40;;;;;;;;;;;;;;;17.43;73.19;100975.42;107281;1254;99207;-67
2023/06/14 04:32:13;;;;;;;;;;;;;;;17.41;73.17;100977.88;107440;1254;99306;-68
2023/06/14 04:34:42;;;;;;;;;;;;;;;17.42;73.05;100976.70;107451;1254;113234;-69
2023/06/14 04:37:13;;;;;;;;;;;;;;;17.45;73.17;100980.14;107466;1254;109092;-66
2023/06/14 04:39:43;;;;;;;;;;;;;;;17.46;72.87;100980.75;107381;1254;108274;-67
2023/06/14 04:42:14;;;;;;;;;;;;;;;17.46;72.56;100981.77;107426;1254;99288;-66
2023/06/14 04:44:43;;;;;;;;;;;;;;;17.55;72.86;100986.40;107454;1254;99169;-66
2023/06/14 04:47:14;;;;;;;;;;;;;;;17.71;73.00;100987.06;107329;1254;112667;-67
2023/06/14 04:49:43;;;;;;;;;;;;;;;17.90;72.88;100992.88;107432;1254;110232;-67
2023/06/14 04:52:12;;;;;;;;;;;;;;;18.08;72.02;100993.77;107284;1254;109089;-65
2023/06/14 04:54:44;;;;;;;;;;;;;;;18.25;71.78;100988.52;107366;1254;99058;-66
2023/06/14 04:57:17;;;;;;;;;;;;;;;18.40;71.20;100990.81;107348;1254;99263;-67
2023/06/14 04:59:48;;;;;;;;;;;;;;;18.58;71.20;100994.08;107412;1254;113620;-70
2023/06/14 05:02:16;;;;;;;;;;;;;;;18.73;70.53;100992.02;107288;1254;110019;-68
2023/06/14 05:04:44;;;;;;;;;;;;;;;18.84;70.25;100989.89;107288;1254;107846;-66
2023/06/14 05:07:14;;;;;;;;;;;;;;;18.91;69.39;100991.95;107262;1254;97670;-69
2023/06/14 05:09:43;;;;;;;;;;;;;;;18.98;69.02;100991.13;107426;1254;99427;-69
2023/06/14 05:12:11;;;;;;;;;;;;;;;19.09;68.74;100990.54;107460;1254;113865;-66
2023/06/14 05:14:39;;;;;;;;;;;;;;;19.13;68.23;100992.58;107449;1254;109344;-66
2023/06/14 05:17:09;;;;;;;;;;;;;;;19.18;68.33;100990.66;107395;1254;108307;-66
2023/06/14 05:19:37;;;;;;;;;;;;;;;19.20;67.32;100993.33;107338;1254;99189;-67
2023/06/14 05:22:08;;;;;;;;;;;;;;;19.10;66.78;100993.46;107409;1254;99211;-67
2023/06/14 05:24:37;;;;;;;;;;;;;;;18.92;66.33;100994.76;107441;1254;112742;-67
2023/06/14 05:27:05;;;;;;;;;;;;;;;18.77;66.49;100992.16;107417;1254;109081;-70
2023/06/14 05:29:34;;;;;;;;;;;;;;;18.72;67.02;100991.27;107431;1257;108057;-69
2023/06/14 05:32:03;;;;;;;;;;;;;;;18.79;67.38;100988.77;107427;1254;99234;-68
2023/06/14 05:34:31;;;;;;;;;;;;;;;18.92;67.51;100991.33;107451;1254;99247;-68
2023/06/14 05:37:00;;;;;;;;;;;;;;;19.07;67.21;100997.84;107492;1253;112826;-67
2023/06/14 05:39:28;;;;;;;;;;;;;;;19.20;66.68;100998.40;107437;1254;109700;-68
2023/06/14 05:41:56;;;;;;;;;;;;;;;19.36;65.75;101003.27;107380;1254;107891;-69
2023/06/14 05:44:24;;;;;;;;;;;;;;;19.49;65.37;101003.86;107368;1254;99199;-69
2023/06/14 05:46:52;;;;;;;;;;;;;;;19.62;65.48;101008.40;107423;1254;99045;-66
2023/06/14 05:49:21;;;;;;;;;;;;;;;19.75;64.94;101010.79;107436;1254;113097;-68
2023/06/14 05:51:50;;;;;;;;;;;;;;;19.88;64.97;101010.95;107418;1254;110244;-67
2023/06/14 05:54:18;;;;;;;;;;;;;;;20.04;63.72;101010.73;107398;1254;107705;-69
2023/06/14 05:56:46;;;;;;;;;;;;;;;20.12;64.01;101010.69;107392;1254;99179;-68
2023/06/14 05:59:14;;;;;;;;;;;;;;;20.23;64.27;101011.60;107423;1254;100358;-67
2023/06/14 06:01:43;;;;;;;;;;;;;;;20.34;63.52;101011.88;107458;1254;112578;-70
2023/06/14 06:04:12;;;;;;;;;;;;;;;20.40;63.34;101013.06;107404;1254;109899;-66
2023/06/14 06:06:40;;;;;;;;;;;;;;;20.52;62.89;101016.52;107423;1253;107980;-65
2023/06/14 06:09:08;;;;;;;;;;;;;;;20.59;62.39;101014.88;107370;1254;99224;-66
2023/06/14 06:11:36;;;;;;;;;;;;;;;20.62;61.22;101014.24;107402;1254;99068;-67
2023/06/14 06:14:19;;;;;;;;;;;;;;;20.62;61.23;101013.81;107407;1254;113398;-67
2023/06/14 06:16:47;;;;;;;;;;;;;;;20.77;61.54;101015.05;107432;1254;109839;-66
2023/06/14 06:19:15;;;;;;;;;;;;;;;20.90;61.34;101016.66;107392;1254;107842;-67
2023/06/14 06:21:43;;;;;;;;;;;;;;;21.03;61.70;101014.58;107384;1254;99188;-67
2023/06/14 06:24:11;;;;;;;;;;;;;;;21.11;59.91;101014.30;107388;1254;99066;-66
2023/06/14 06:26:40;;;;;;;;;;;;;;;21.10;59.98;101010.00;107419;1253;113262;-67
2023/06/14 06:29:08;;;;;;;;;;;;;;;21.19;60.25;101008.16;107403;1254;111484;-66
2023/06/14 06:31:36;;;;;;;;;;;;;;;21.22;59.15;101005.56;107378;1254;108385;-67
2023/06/14 06:34:05;;;;;;;;;;;;;;;21.16;58.79;101002.73;107377;1257;99249;-69
2023/06/14 06:36:33;;;;;;;;;;;;;;;21.15;59.33;101006.29;107420;1254;99029;-66
2023/06/14 06:39:06;;;;;;;;;;;;;;;21.18;59.44;101002.06;107452;1254;113296;-66
2023/06/14 06:41:36;;;;;;;;;;;;;;;21.21;59.31;101004.22;107458;1254;109700;-66
2023/06/14 06:44:07;;;;;;;;;;;;;;;21.25;58.81;100999.95;107372;1257;107522;-66
2023/06/14 06:46:39;;;;;;;;;;;;;;;21.24;58.48;101005.71;107412;1254;99808;-66
2023/06/14 06:49:09;;;;;;;;;;;;;;;21.22;58.81;101007.42;107342;1254;99118;-65
2023/06/14 06:51:41;;;;;;;;;;;;;;;21.25;59.19;101005.41;107409;1254;113060;-65
2023/06/14 06:54:10;;;;;;;;;;;;;;;21.29;59.16;101004.94;107409;1254;109833;-67
2023/06/14 06:56:38;;;;;;;;;;;;;;;21.27;58.82;101005.27;107385;1257;107817;-66
2023/06/14 06:59:06;;;;;;;;;;;;;;;21.24;58.69;101010.64;107348;1257;99179;-65
2023/06/14 07:01:36;;;;;;;;;;;;;;;21.18;58.41;101010.98;107455;1253;99170;-67
2023/06/14 07:04:04;;;;;;;;;;;;;;;21.19;58.61;101008.58;107406;1254;114198;-68
2023/06/14 07:06:32;;;;;;;;;;;;;;;21.25;58.28;101008.95;107438;1254;109573;-69
2023/06/14 07:09:01;;;;;;;;;;;;;;;21.25;57.79;101007.73;107363;1254;108608;-67
2023/06/14 07:11:29;;;;;;;;;;;;;;;21.23;58.13;101012.70;107394;1254;99157;-68
2023/06/14 07:13:58;;;;;;;;;;;;;;;21.20;57.62;101011.99;107399;1254;99121;-67
2023/06/14 07:16:26;;;;;;;;;;;;;;;21.18;57.36;101011.90;107392;1258;111971;-66
2023/06/14 07:18:54;;;;;;;;;;;;;;;21.22;57.41;101016.35;107397;1254;108861;-67
2023/06/14 07:21:23;;;;;;;;;;;;;;;21.25;57.11;101015.44;107403;1254;108089;-67
2023/06/14 07:23:52;;;;;;;;;;;;;;;21.40;57.22;101018.69;107395;1254;99153;-65
2023/06/14 07:26:21;;;;;;;;;;;;;;;21.49;56.30;101018.98;107423;1254;99064;-68
2023/06/14 07:28:49;;;;;;;;;;;;;;;21.60;56.08;101012.88;107291;1256;114183;-73
2023/06/14 07:31:19;;;;;;;;;;;;;;;21.68;55.87;101013.16;107394;1254;109485;-68
2023/06/14 07:33:47;;;;;;;;;;;;;;;21.83;55.92;101012.72;107369;1254;107376;-68
2023/06/14 07:36:17;;;;;;;;;;;;;;;22.02;56.09;101008.42;107362;1254;99181;-69
2023/06/14 07:38:45;;;;;;;;;;;;;;;22.26;55.04;101009.38;107387;1254;99173;-70
2023/06/14 07:41:14;;;;;;;;;;;;;;;22.41;54.90;101009.08;107415;1254;112792;-69
2023/06/14 07:43:44;;;;;;;;;;;;;;;22.60;54.49;101007.27;107412;1254;109544;-67
2023/06/14 07:46:12;;;;;;;;;;;;;;;22.79;54.14;101006.31;107424;1254;107567;-67
2023/06/14 07:48:41;;;;;;;;;;;;;;;23.00;53.62;101003.38;107486;1254;99265;-69
2023/06/14 07:51:09;;;;;;;;;;;;;;;23.11;53.05;101002.95;107419;1254;99266;-69
2023/06/14 07:53:38;;;;;;;;;;;;;;;23.15;52.38;101004.58;107420;1253;112942;-69
2023/06/14 07:56:06;;;;;;;;;;;;;;;23.10;51.96;101002.90;107410;1254;109076;-69
2023/06/14 07:58:34;;;;;;;;;;;;;;;23.05;51.45;101006.33;107379;1254;108228;-69
2023/06/14 08:01:06;;;;;;;;;;;;;;;22.80;50.43;101009.18;106817;1254;805472;-69
2023/06/14 08:03:34;;;;;;;;;;;;;;;22.51;50.82;101008.17;107436;1254;99258;-71
2023/06/14 08:06:06;;;;;;;;;;;;;;;22.36;51.62;101007.33;107277;1254;112976;-67
2023/06/14 08:08:35;;;;;;;;;;;;;;;22.35;52.15;101010.95;107448;1254;109194;-68
2023/06/14 08:11:03;;;;;;;;;;;;;;;22.36;52.86;101010.48;107434;1254;107951;-69
2023/06/14 08:13:32;;;;;;;;;;;;;;;22.46;53.22;101007.95;107391;1253;99824;-68
2023/06/14 08:16:01;;;;;;;;;;;;;;;22.61;53.53;101008.01;107459;1254;99064;-68
2023/06/14 08:18:30;;;;;;;;;;;;;;;22.78;53.09;101009.33;107512;1257;113777;-68
2023/06/14 08:20:58;;;;;;;;;;;;;;;22.95;52.42;101009.72;107321;1254;109905;-68
2023/06/14 08:23:26;;;;;;;;;;;;;;;23.10;52.12;101010.16;107397;1254;107339;-69
2023/06/14 08:25:55;;;;;;;;;;;;;;;23.23;51.56;101009.95;107387;1254;99265;-69
2023/06/14 08:28:24;;;;;;;;;;;;;;;23.31;50.28;101010.15;107379;1254;99223;-73
2023/06/14 08:30:52;;;;;;;;;;;;;;;23.32;50.39;101014.96;107418;1254;113060;-68
2023/06/14 08:33:21;;;;;;;;;;;;;;;23.34;51.37;101015.42;107397;1254;109949;-67
2023/06/14 08:35:49;;;;;;;;;;;;;;;23.45;51.15;101014.29;107424;1254;110114;-70
2023/06/14 08:38:17;;;;;;;;;;;;;;;23.60;51.12;101013.34;107412;1257;99176;-68
2023/06/14 08:40:50;;;;;;;;;;;;;;;23.73;50.75;101011.61;107411;1254;99186;-70
2023/06/14 08:43:18;;;;;;;;;;;;;;;23.86;50.70;101011.45;107421;1254;113896;-69
2023/06/14 08:45:48;;;;;;;;;;;;;;;24.02;49.75;101010.42;107419;1254;110566;-67
2023/06/14 08:48:20;;;;;;;;;;;;;;;24.05;48.12;101005.73;107489;1253;107669;-68
2023/06/14 08:50:49;;;;;;;;;;;;;;;23.93;47.94;101012.54;107541;1254;99252;-70
2023/06/14 08:53:22;;;;;;;;;;;;;;;23.86;48.60;101010.40;107415;1254;99268;-70
2023/06/14 08:55:53;;;;;;;;;;;;;;;23.87;49.20;101006.64;107505;1253;111732;-71
2023/06/14 08:58:24;;;;;;;;;;;;;;;23.93;48.77;101005.42;107424;1254;108775;-68
2023/06/14 09:00:52;;;;;;;;;;;;;;;23.97;48.73;101006.32;107354;1253;107631;-68
2023/06/14 09:03:20;;;;;;;;;;;;;;;23.99;48.83;101006.64;107408;1253;99167;-68
2023/06/14 09:05:54;;;;;;;;;;;;;;;23.99;49.13;101006.81;107399;1254;99036;-71
2023/06/14 09:08:23;;;;;;;;;;;;;;;24.03;49.34;101006.53;107383;1257;113705;-65
2023/06/14 09:10:51;;;;;;;;;;;;;;;24.05;49.29;101006.14;107367;1254;109129;-68
2023/06/14 09:13:20;;;;;;;;;;;;;;;24.02;49.36;101002.98;107370;1254;107905;-69
2023/06/14 09:15:48;;;;;;;;;;;;;;;24.02;49.47;101003.38;107404;1254;99194;-68
2023/06/14 09:18:17;;;;;;;;;;;;;;;24.03;49.39;101004.92;107392;1254;99087;-70
2023/06/14 09:20:47;;;;;;;;;;;;;;;24.06;48.78;101005.03;107397;1254;113552;-68
2023/06/14 09:23:20;;;;;;;;;;;;;;;24.08;49.03;101004.10;107426;1254;109708;-68
2023/06/14 09:25:48;;;;;;;;;;;;;;;24.14;49.08;101003.43;107392;1254;107562;-70
2023/06/14 09:28:16;;;;;;;;;;;;;;;24.19;48.71;101005.25;107357;1254;99263;-68
2023/06/14 09:30:44;;;;;;;;;;;;;;;24.23;48.55;101002.62;107427;1254;99185;-68
2023/06/14 09:33:16;;;;;;;;;;;;;;;24.31;48.69;100997.73;107415;1254;113626;-67
2023/06/14 09:35:51;;;;;;;;;;;;;;;24.36;48.48;101000.41;107380;1253;110121;-67
2023/06/14 09:38:19;;;;;;;;;;;;;;;24.45;48.25;100996.58;107376;1254;108490;-73
2023/06/14 09:40:55;;;;;;;;;;;;;;;24.47;47.42;100995.00;107331;1253;99131;-68
2023/06/14 09:43:26;;;;;;;;;;;;;;;24.41;47.65;100995.17;107362;1254;99265;-68
2023/06/14 09:45:55;;;;;;;;;;;;;;;24.45;48.08;100995.19;107401;1254;112661;-67
2023/06/14 09:48:26;;;;;;;;;;;;;;;24.63;48.34;100993.95;107350;1254;110307;-71
2023/06/14 09:50:59;;;;;;;;;;;;;;;24.84;47.32;100992.85;107335;1254;106811;-67
2023/06/14 09:53:29;;;;;;;;;;;;;;;24.92;47.07;100992.86;107191;1254;99281;-67
2023/06/14 09:55:58;;;;;;;;;;;;;;;25.06;46.73;100989.54;107427;1254;99255;-69
2023/06/14 09:58:28;;;;;;;;;;;;;;;25.01;45.44;100993.95;107480;1254;112881;-67
2023/06/14 10:00:57;;;;;;;;;;;;;;;24.96;45.21;100993.41;107295;1257;110097;-69
2023/06/14 10:03:27;;;;;;;;;;;;;;;24.94;45.42;100993.55;107401;1257;108211;-65
2023/06/14 10:06:05;;;;;;;;;;;;;;;25.07;45.67;100987.80;107358;1254;99028;-66
2023/06/14 10:08:36;;;;;;;;;;;;;;;25.18;45.54;100985.65;107454;1254;99179;-68
2023/06/14 10:11:05;;;;;;;;;;;;;;;25.27;45.87;100986.10;107377;1254;112728;-67
2023/06/14 10:13:34;;;;;;;;;;;;;;;25.31;45.30;100986.90;107432;1254;108794;-67
2023/06/14 10:16:12;;;;;;;;;;;;;;;25.29;44.87;100985.02;107426;1254;108491;-68
2023/06/14 10:18:49;;;;;;;;;;;;;;;25.24;44.69;100982.48;107437;1254;99295;-67
2023/06/14 10:21:36;;;;;;;;;;;;;;;25.38;45.37;100983.95;107472;1254;99064;-69
2023/06/14 10:24:07;;;;;;;;;;;;;;;25.65;45.41;100984.02;107413;1254;113412;-67
2023/06/14 10:26:50;;;;;;;;;;;;;;;25.86;42.99;100985.70;107414;1254;109824;-67
2023/06/14 10:29:18;;;;;;;;;;;;;;;25.89;43.67;100983.70;107372;1257;107281;-67
2023/06/14 10:31:47;;;;;;;;;;;;;;;26.00;43.87;100989.02;107399;1256;99248;-68
2023/06/14 10:34:23;;;;;;;;;;;;;;;26.23;44.28;100986.06;107304;1254;99205;-68
2023/06/14 10:37:18;;;;;;;;;;;;;;;26.47;43.33;100985.70;107363;1254;112995;-68
2023/06/14 10:39:46;;;;;;;;;;;;;;;26.69;43.24;100982.02;107343;1257;109308;-65
2023/06/14 10:42:15;;;;;;;;;;;;;;;26.88;42.54;100979.23;107374;1254;109189;-66
2023/06/14 10:44:46;;;;;;;;;;;;;;;26.95;41.89;100981.20;107363;1254;99211;-68
2023/06/14 10:47:25;;;;;;;;;;;;;;;27.00;41.38;100983.39;107371;1254;99182;-70
2023/06/14 10:50:05;;;;;;;;;;;;;;;27.02;41.14;100984.42;107399;1254;113277;-69
2023/06/14 10:52:35;;;;;;;;;;;;;;;27.04;41.38;100980.48;107360;1254;109040;-67
2023/06/14 10:55:04;;;;;;;;;;;;;;;27.10;41.68;100979.95;107322;1256;108517;-68
2023/06/14 10:57:33;;;;;;;;;;;;;;;27.20;40.81;100977.62;107409;1254;99197;-69
2023/06/14 11:00:22;;;;;;;;;;;;;;;27.18;40.74;100979.75;107389;1254;99058;-67
2023/06/14 11:02:54;;;;;;;;;;;;;;;27.11;40.83;100986.95;107398;1258;112228;-69
2023/06/14 11:05:26;;;;;;;;;;;;;;;27.05;40.79;100986.96;107376;1254;109437;-66
2023/06/14 11:08:04;;;;;;;;;;;;;;;26.96;41.16;100986.16;107375;1259;108823;-67
2023/06/14 11:10:39;;;;;;;;;;;;;;;26.99;41.62;100983.13;107371;1254;99269;-68
2023/06/14 11:13:08;;;;;;;;;;;;;;;27.05;41.85;100983.77;107340;1257;99204;-66
2023/06/14 11:15:37;;;;;;;;;;;;;;;27.09;40.79;100983.52;107332;1254;113394;-67
2023/06/14 11:18:06;;;;;;;;;;;;;;;26.97;40.59;100985.23;107256;1254;109875;-68
2023/06/14 11:20:35;;;;;;;;;;;;;;;26.83;40.56;100980.39;107384;1254;107594;-66
2023/06/14 11:23:04;;;;;;;;;;;;;;;26.78;40.91;100977.95;107354;1255;99188;-68
2023/06/14 11:25:32;;;;;;;;;;;;;;;26.87;40.82;100978.11;107413;1254;99195;-68
2023/06/14 11:28:01;;;;;;;;;;;;;;;27.02;41.02;100975.30;107385;1255;112965;-68
2023/06/14 11:30:29;;;;;;;;;;;;;;;27.20;41.06;100978.47;107375;1257;110366;-66
2023/06/14 11:32:57;;;;;;;;;;;;;;;27.37;40.72;100973.00;107370;1257;108754;-67
2023/06/14 11:35:26;;;;;;;;;;;;;;;27.53;40.58;100969.04;107343;1256;99158;-67
2023/06/14 11:37:56;;;;;;;;;;;;;;;27.66;40.30;100972.27;107354;1254;99386;-67
2023/06/14 11:40:25;;;;;;;;;;;;;;;27.74;39.86;100967.65;107414;1254;112983;-69
2023/06/14 11:43:00;;;;;;;;;;;;;;;27.79;39.85;100964.61;107372;1254;109026;-67
2023/06/14 11:45:30;;;;;;;;;;;;;;;27.81;39.53;100961.67;107407;1254;107824;-67
2023/06/14 11:47:58;;;;;;;;;;;;;;;27.89;39.83;100959.27;107406;1254;99249;-67
2023/06/14 11:50:28;;;;;;;;;;;;;;;27.99;39.75;100964.93;107396;1254;99060;-67
2023/06/14 11:52:57;;;;;;;;;;;;;;;28.02;39.53;100967.02;107370;1256;113943;-66
2023/06/14 11:55:25;;;;;;;;;;;;;;;28.11;39.81;100959.69;107428;1257;109226;-67
2023/06/14 11:57:54;;;;;;;;;;;;;;;28.17;39.72;100959.69;107432;1254;108291;-67
2023/06/14 12:00:27;;;;;;;;;;;;;;;28.26;39.64;100959.56;107424;1254;99185;-66
2023/06/14 12:02:56;;;;;;;;;;;;;;;28.34;38.69;100962.85;107391;1254;99052;-66
2023/06/14 12:05:26;;;;;;;;;;;;;;;28.27;38.55;100963.41;107428;1254;112693;-67
2023/06/14 12:07:59;;;;;;;;;;;;;;;28.19;38.32;100963.08;107328;1254;108379;-67
2023/06/14 12:10:28;;;;;;;;;;;;;;;28.20;39.36;100961.50;107371;1254;107957;-67
2023/06/14 12:12:58;;;;;;;;;;;;;;;28.47;39.18;100957.37;107409;1254;99169;-67
2023/06/14 12:15:29;;;;;;;;;;;;;;;28.82;38.68;100956.38;107446;1254;99163;-69
2023/06/14 12:17:58;;;;;;;;;;;;;;;28.97;37.39;100957.04;107449;1254;112864;-67
2023/06/14 12:20:29;;;;;;;;;;;;;;;28.97;37.27;100954.89;107488;1257;109546;-67
2023/06/14 12:22:59;;;;;;;;;;;;;;;28.98;37.05;100956.13;107439;1253;108296;-68
2023/06/14 12:25:32;;;;;;;;;;;;;;;29.08;37.01;100953.43;107409;1253;99151;-68
2023/06/14 12:28:04;;;;;;;;;;;;;;;29.12;36.53;100951.11;107473;1254;99182;-67
2023/06/14 12:30:34;;;;;;;;;;;;;;;29.17;36.98;100946.39;107596;1253;112677;-67
2023/06/14 12:33:03;;;;;;;;;;;;;;;29.46;36.39;100944.96;107454;1254;110002;-69